createdAt,value
2018-09-30T00:00:55.738Z,5.20
2018-09-30T00:05:59.411Z,5.00
2018-09-30T00:11:03.037Z,5.60
2018-09-30T00:16:06.627Z,4.90
2018-09-30T00:21:11.251Z,4.70
2018-09-30T00:26:19.954Z,4.70
2018-09-30T00:31:23.562Z,4.60
2018-09-30T00:36:27.267Z,4.40
2018-09-30T00:41:30.899Z,4.40
2018-09-30T00:46:34.557Z,4.20
2018-09-30T00:51:38.237Z,4.40
2018-09-30T00:56:42.068Z,4.70
2018-09-30T01:01:45.691Z,4.80
2018-09-30T01:06:49.307Z,4.40
2018-09-30T01:11:53.066Z,4.20
2018-09-30T01:16:56.705Z,4.00
2018-09-30T01:22:00.317Z,3.90
2018-09-30T01:27:03.919Z,4.00
2018-09-30T01:32:07.542Z,3.80
2018-09-30T01:37:11.095Z,4.00
2018-09-30T01:42:14.702Z,4.00
2018-09-30T01:47:19.334Z,4.00
2018-09-30T01:52:34.149Z,3.80
2018-09-30T01:57:39.130Z,3.70
2018-09-30T02:02:43.978Z,3.80
2018-09-30T02:07:49.682Z,3.70
2018-09-30T02:12:53.271Z,3.60
2018-09-30T02:17:56.997Z,3.70
2018-09-30T02:23:01.566Z,3.70
2018-09-30T02:28:05.323Z,3.60
2018-09-30T02:33:09.018Z,3.80
2018-09-30T02:38:13.650Z,3.50
2018-09-30T02:43:17.288Z,3.40
2018-09-30T02:48:20.898Z,3.20
2018-09-30T02:53:24.612Z,3.10
2018-09-30T02:58:28.165Z,3.50
2018-09-30T03:03:31.844Z,3.20
2018-09-30T03:08:40.815Z,3.40
2018-09-30T03:13:44.335Z,3.40
2018-09-30T03:18:48.981Z,3.00
2018-09-30T03:23:52.527Z,3.00
2018-09-30T03:28:56.053Z,3.00
2018-09-30T03:33:59.619Z,2.80
2018-09-30T03:39:03.258Z,2.60
2018-09-30T03:44:06.813Z,2.60
2018-09-30T03:49:10.518Z,2.50
2018-09-30T03:54:14.114Z,2.50
2018-09-30T03:59:17.856Z,3.00
2018-09-30T04:04:21.560Z,3.10
2018-09-30T04:09:25.216Z,3.40
2018-09-30T04:14:28.780Z,3.00
2018-09-30T04:19:32.338Z,2.90
2018-09-30T04:24:35.959Z,2.60
2018-09-30T04:29:40.602Z,2.60
2018-09-30T04:34:44.150Z,2.50
2018-09-30T04:39:47.700Z,2.60
2018-09-30T04:44:51.267Z,2.40
2018-09-30T04:49:54.839Z,2.10
2018-09-30T04:54:58.394Z,2.30
2018-09-30T05:00:01.941Z,2.30
2018-09-30T05:05:05.683Z,2.20
2018-09-30T05:10:09.327Z,2.20
2018-09-30T05:15:12.980Z,2.20
2018-09-30T05:20:16.532Z,2.30
2018-09-30T05:25:20.166Z,2.40
2018-09-30T05:30:23.710Z,2.30
2018-09-30T05:35:27.284Z,2.40
2018-09-30T05:40:30.927Z,2.40
2018-09-30T05:45:34.599Z,2.30
2018-09-30T05:50:38.179Z,2.30
2018-09-30T05:55:41.821Z,2.20
2018-09-30T06:00:45.398Z,2.40
2018-09-30T06:05:48.986Z,2.50
2018-09-30T06:10:53.659Z,2.30
2018-09-30T06:15:57.308Z,2.20
2018-09-30T06:21:00.778Z,2.30
2018-09-30T06:26:04.421Z,2.60
2018-09-30T06:31:08.056Z,2.80
2018-09-30T06:36:11.672Z,2.90
2018-09-30T06:41:15.382Z,3.10
2018-09-30T06:46:19.106Z,3.30
2018-09-30T06:51:22.666Z,3.60
2018-09-30T06:56:26.214Z,3.70
2018-09-30T07:01:29.786Z,4.00
2018-09-30T07:06:33.494Z,4.40
2018-09-30T07:11:37.392Z,4.80
2018-09-30T07:16:41.327Z,4.90
2018-09-30T07:21:44.888Z,5.10
2018-09-30T07:26:50.512Z,5.50
2018-09-30T07:31:54.214Z,5.60
2018-09-30T07:36:57.968Z,5.80
2018-09-30T07:42:01.698Z,5.90
2018-09-30T07:47:06.466Z,6.10
2018-09-30T07:52:11.069Z,6.40
2018-09-30T07:57:15.213Z,6.50
2018-09-30T08:02:20.135Z,6.80
2018-09-30T08:07:23.884Z,6.90
2018-09-30T08:12:27.760Z,7.30
2018-09-30T08:17:31.598Z,10.10
2018-09-30T08:22:35.282Z,12.20
2018-09-30T08:27:39.366Z,13.30
2018-09-30T08:32:43.030Z,13.70
2018-09-30T08:37:51.738Z,15.50
2018-09-30T08:42:55.531Z,14.60
2018-09-30T08:47:59.087Z,14.70
2018-09-30T08:53:02.882Z,14.70
2018-09-30T08:58:06.442Z,14.70
2018-09-30T09:03:10.108Z,14.80
2018-09-30T09:08:13.835Z,15.60
2018-09-30T09:13:17.738Z,15.10
2018-09-30T09:18:21.374Z,16.80
2018-09-30T09:23:25.144Z,16.60
2018-09-30T09:28:30.108Z,17.00
2018-09-30T09:33:34.125Z,17.40
2018-09-30T09:38:37.766Z,17.90
2018-09-30T09:43:41.386Z,17.90
2018-09-30T09:48:47.746Z,16.80
2018-09-30T09:53:52.486Z,17.90
2018-09-30T09:58:57.171Z,16.90
2018-09-30T10:04:01.759Z,19.10
2018-09-30T10:09:06.653Z,20.00
2018-09-30T10:14:10.301Z,19.30
2018-09-30T10:19:13.874Z,19.80
2018-09-30T10:24:17.544Z,19.10
2018-09-30T10:29:21.059Z,19.10
2018-09-30T10:34:25.646Z,19.40
2018-09-30T10:39:29.456Z,21.70
2018-09-30T10:44:33.343Z,19.40
2018-09-30T10:49:37.034Z,19.30
2018-09-30T10:54:40.859Z,19.40
2018-09-30T10:59:44.642Z,17.90
2018-09-30T11:04:48.274Z,19.30
2018-09-30T11:09:52.066Z,18.30
2018-09-30T11:14:55.718Z,17.90
2018-09-30T11:19:59.531Z,17.30
2018-09-30T11:25:03.232Z,17.20
2018-09-30T11:30:07.242Z,17.20
2018-09-30T11:35:10.962Z,17.10
2018-09-30T11:40:15.549Z,16.80
2018-09-30T11:45:21.230Z,16.90
2018-09-30T11:50:25.272Z,17.00
2018-09-30T11:55:29.679Z,17.10
2018-09-30T12:00:34.726Z,17.00
2018-09-30T12:05:39.074Z,16.70
2018-09-30T12:10:43.418Z,16.70
2018-09-30T12:15:54.616Z,16.70
2018-09-30T12:20:59.213Z,16.80
2018-09-30T12:26:05.692Z,16.90
2018-09-30T12:31:09.704Z,17.00
2018-09-30T12:36:14.530Z,17.10
2018-09-30T12:41:19.287Z,17.10
2018-09-30T12:46:23.762Z,17.10
2018-09-30T12:51:28.638Z,17.10
2018-09-30T12:56:32.744Z,17.20
2018-09-30T13:01:37.190Z,17.20
2018-09-30T13:06:41.415Z,16.90
2018-09-30T13:11:45.415Z,16.90
2018-09-30T13:16:50.094Z,16.90
2018-09-30T13:21:53.810Z,16.90
2018-09-30T13:26:57.654Z,16.80
2018-09-30T13:32:01.529Z,17.10
2018-09-30T13:37:05.804Z,17.20
2018-09-30T13:42:09.514Z,16.90
2018-09-30T13:47:17.296Z,16.80
2018-09-30T13:52:27.592Z,16.60
2018-09-30T13:57:45.898Z,16.60
2018-09-30T14:02:50.766Z,16.70
2018-09-30T14:08:04.295Z,16.60
2018-09-30T14:13:22.802Z,16.50
2018-09-30T14:18:30.118Z,16.60
2018-09-30T14:23:35.876Z,16.60
2018-09-30T14:28:40.542Z,16.40
2018-09-30T14:33:44.219Z,16.40
2018-09-30T14:39:20.627Z,16.40
2018-09-30T14:44:40.943Z,16.60
2018-09-30T14:55:00.671Z,16.40
2018-09-30T15:00:09.866Z,16.40
2018-09-30T15:05:13.530Z,16.40
2018-09-30T15:10:22.307Z,16.40
2018-09-30T15:15:26.511Z,16.40
2018-09-30T15:20:33.050Z,16.40
2018-09-30T15:25:36.890Z,16.20
2018-09-30T15:30:49.516Z,16.10
2018-09-30T15:36:00.703Z,16.00
2018-09-30T15:41:09.759Z,16.10
2018-09-30T15:46:24.623Z,16.10
2018-09-30T15:51:29.230Z,16.00
2018-09-30T15:56:32.990Z,16.00
2018-09-30T16:01:36.631Z,15.90
2018-09-30T16:06:40.422Z,15.80
2018-09-30T16:11:44.135Z,15.80
2018-09-30T16:16:47.862Z,15.70
2018-09-30T16:21:51.530Z,15.60
2018-09-30T16:26:55.166Z,15.60
2018-09-30T16:31:59.207Z,15.50
2018-09-30T16:37:03.082Z,15.40
2018-09-30T16:42:06.894Z,15.30
2018-09-30T16:47:11.676Z,15.00
2018-09-30T16:52:15.466Z,14.60
2018-09-30T16:57:19.223Z,14.20
2018-09-30T17:02:22.859Z,13.80
2018-09-30T17:07:27.062Z,13.60
2018-09-30T17:12:30.687Z,13.40
2018-09-30T17:17:34.358Z,13.20
2018-09-30T17:22:37.934Z,13.00
2018-09-30T17:27:41.610Z,12.80
2018-09-30T17:32:45.522Z,12.80
2018-09-30T17:37:51.240Z,12.70
2018-09-30T17:43:02.501Z,12.50
2018-09-30T17:48:07.974Z,12.20
2018-09-30T17:53:11.798Z,12.00
2018-09-30T17:58:15.592Z,11.80
2018-09-30T18:03:20.255Z,11.80
2018-09-30T18:08:24.876Z,11.70
2018-09-30T18:13:28.810Z,11.40
2018-09-30T18:18:33.858Z,11.30
2018-09-30T18:23:37.457Z,11.30
2018-09-30T18:28:41.142Z,11.30
2018-09-30T18:33:44.875Z,11.30
2018-09-30T18:38:48.527Z,11.20
2018-09-30T18:43:53.281Z,11.20
2018-09-30T18:48:57.091Z,11.20
2018-09-30T18:54:01.545Z,10.70
2018-09-30T18:59:05.440Z,10.50
2018-09-30T19:04:09.080Z,10.50
2018-09-30T19:09:13.458Z,10.60
2018-09-30T19:14:17.467Z,10.40
2018-09-30T19:19:21.285Z,10.20
2018-09-30T19:24:26.092Z,10.30
2018-09-30T19:29:31.482Z,10.10
2018-09-30T19:34:35.228Z,10.20
2018-09-30T19:39:38.970Z,10.30
2018-09-30T19:44:43.039Z,10.20
2018-09-30T19:49:46.967Z,10.10
2018-09-30T19:54:50.733Z,10.10
2018-09-30T19:59:55.941Z,9.80
2018-09-30T20:10:03.053Z,9.50
2018-09-30T20:15:06.975Z,9.60
2018-09-30T20:20:10.839Z,9.70
2018-09-30T20:25:16.146Z,9.50
2018-09-30T20:30:20.931Z,9.70
2018-09-30T20:35:26.159Z,9.70
2018-09-30T20:40:29.827Z,9.70
2018-09-30T20:45:35.337Z,9.70
2018-09-30T20:50:39.351Z,9.50
2018-09-30T20:55:43.719Z,9.40
2018-09-30T21:00:49.465Z,9.50
2018-09-30T21:06:42.155Z,9.40
2018-09-30T21:11:47.130Z,9.30
2018-09-30T21:17:01.055Z,9.30
2018-09-30T21:22:04.934Z,9.40
2018-09-30T21:27:09.635Z,9.00
2018-09-30T21:32:25.287Z,8.80
2018-09-30T21:37:29.111Z,8.50
2018-09-30T21:42:35.858Z,8.50
2018-09-30T21:47:41.718Z,8.50
2018-09-30T21:52:45.660Z,8.30
2018-09-30T21:57:50.879Z,8.20
2018-09-30T22:02:55.358Z,8.10
2018-09-30T22:08:01.315Z,7.90
2018-09-30T22:13:05.170Z,7.80
2018-09-30T22:18:09.943Z,8.10
2018-09-30T22:23:14.096Z,8.10
2018-09-30T22:28:17.804Z,8.00
2018-09-30T22:33:22.518Z,7.90
2018-09-30T22:38:27.337Z,7.70
2018-09-30T22:44:38.433Z,7.70
2018-09-30T22:49:42.310Z,7.70
2018-09-30T22:54:46.635Z,7.90
2018-09-30T22:59:51.831Z,7.60
2018-09-30T23:04:55.980Z,7.50
2018-09-30T23:09:59.756Z,7.40
2018-09-30T23:15:04.544Z,7.30
2018-09-30T23:20:15.175Z,7.40
2018-09-30T23:25:21.128Z,7.30
2018-09-30T23:30:24.846Z,7.10
2018-09-30T23:35:28.636Z,6.80
2018-09-30T23:40:32.446Z,6.80
2018-09-30T23:45:36.020Z,6.80
2018-09-30T23:50:39.614Z,6.80
2018-09-30T23:55:43.306Z,6.90
